createdAt,value
2022-12-03T00:00:23.037Z,101570.00
2022-12-03T00:02:49.736Z,101564.00
2022-12-03T00:05:16.443Z,101569.00
2022-12-03T00:07:43.041Z,101561.00
2022-12-03T00:10:09.995Z,101567.00
2022-12-03T00:12:36.493Z,101558.00
2022-12-03T00:15:03.848Z,101555.00
2022-12-03T00:17:32.047Z,101557.00
2022-12-03T00:19:58.556Z,101562.00
2022-12-03T00:22:25.035Z,101561.00
2022-12-03T00:24:52.094Z,101550.00
2022-12-03T00:27:18.829Z,101557.00
2022-12-03T00:29:45.765Z,101566.00
2022-12-03T00:32:13.892Z,101558.00
2022-12-03T00:34:40.367Z,101559.00
2022-12-03T00:37:07.144Z,101557.00
2022-12-03T00:39:33.720Z,101560.00
2022-12-03T00:42:00.349Z,101542.00
2022-12-03T00:44:27.036Z,101552.00
2022-12-03T00:46:53.573Z,101544.00
2022-12-03T00:49:20.108Z,101554.00
2022-12-03T00:51:46.611Z,101541.00
2022-12-03T00:54:13.101Z,101541.00
2022-12-03T00:56:39.636Z,101550.00
2022-12-03T00:59:06.138Z,101546.00
2022-12-03T01:01:32.733Z,101544.00
2022-12-03T01:03:59.505Z,101544.00
2022-12-03T01:06:26.165Z,101540.00
2022-12-03T01:08:52.645Z,101548.00
2022-12-03T01:11:37.393Z,101550.00
2022-12-03T01:14:15.630Z,101558.00
2022-12-03T01:16:42.536Z,101556.00
2022-12-03T01:19:10.531Z,101556.00
2022-12-03T01:21:37.620Z,101557.00
2022-12-03T01:24:04.525Z,101559.00
2022-12-03T01:26:31.066Z,101561.00
2022-12-03T01:28:57.629Z,101555.00
2022-12-03T01:31:42.812Z,101539.00
2022-12-03T01:34:09.349Z,101538.00
2022-12-03T01:36:35.890Z,101556.00
2022-12-03T01:39:03.834Z,101554.00
2022-12-03T01:41:31.707Z,101553.00
2022-12-03T01:43:58.660Z,101547.00
2022-12-03T01:46:30.441Z,101549.00
2022-12-03T01:48:57.173Z,101545.00
2022-12-03T01:51:23.773Z,101545.00
2022-12-03T01:53:51.118Z,101547.00
2022-12-03T01:56:18.366Z,101543.00
2022-12-03T01:58:45.716Z,101525.00
2022-12-03T02:01:15.674Z,101527.00
2022-12-03T02:03:42.815Z,101536.00
2022-12-03T02:06:15.358Z,101534.00
2022-12-03T02:08:41.884Z,101531.00
2022-12-03T02:11:11.334Z,101535.00
2022-12-03T02:13:38.065Z,101529.00
2022-12-03T02:16:04.997Z,101536.00
2022-12-03T02:18:31.511Z,101543.00
2022-12-03T02:21:04.638Z,101521.00
2022-12-03T02:23:42.741Z,101541.00
2022-12-03T02:26:09.428Z,101534.00
2022-12-03T02:28:36.191Z,101541.00
2022-12-03T02:31:05.076Z,101534.00
2022-12-03T02:33:32.296Z,101535.00
2022-12-03T02:36:03.363Z,101538.00
2022-12-03T02:38:31.265Z,101546.00
2022-12-03T02:40:59.848Z,101535.00
2022-12-03T02:43:26.485Z,101537.00
2022-12-03T02:45:55.510Z,101537.00
2022-12-03T02:48:30.765Z,101537.00
2022-12-03T02:51:03.142Z,101536.00
2022-12-03T02:53:33.793Z,101536.00
2022-12-03T02:56:02.003Z,101536.00
2022-12-03T02:58:30.631Z,101539.00
2022-12-03T03:00:57.484Z,101540.00
2022-12-03T03:03:25.028Z,101550.00
2022-12-03T03:05:52.479Z,101532.00
2022-12-03T03:08:19.374Z,101544.00
2022-12-03T03:10:47.416Z,101535.00
2022-12-03T03:13:15.830Z,101539.00
2022-12-03T03:15:42.789Z,101539.00
2022-12-03T03:18:10.747Z,101534.00
2022-12-03T03:20:37.431Z,101529.00
2022-12-03T03:23:24.272Z,101521.00
2022-12-03T03:25:54.018Z,101535.00
2022-12-03T03:28:21.765Z,101534.00
2022-12-03T03:30:48.514Z,101531.00
2022-12-03T03:33:15.570Z,101525.00
2022-12-03T03:35:42.720Z,101525.00
2022-12-03T03:38:09.849Z,101531.00
2022-12-03T03:40:37.580Z,101516.00
2022-12-03T03:43:04.534Z,101512.00
2022-12-03T03:45:31.130Z,101524.00
2022-12-03T03:47:59.077Z,101508.00
2022-12-03T03:50:27.776Z,101517.00
2022-12-03T03:52:54.916Z,101509.00
2022-12-03T03:55:21.469Z,101512.00
2022-12-03T03:57:48.456Z,101498.00
2022-12-03T04:00:17.575Z,101503.00
2022-12-03T04:02:44.525Z,101496.00
2022-12-03T04:05:22.629Z,101501.00
2022-12-03T04:07:49.403Z,101501.00
2022-12-03T04:10:36.876Z,101499.00
2022-12-03T04:13:04.609Z,101494.00
2022-12-03T04:15:31.644Z,101495.00
2022-12-03T04:18:16.843Z,101493.00
2022-12-03T04:20:43.353Z,101499.00
2022-12-03T04:23:09.982Z,101485.00
2022-12-03T04:25:55.329Z,101487.00
2022-12-03T04:28:40.866Z,101482.00
2022-12-03T04:31:26.067Z,101499.00
2022-12-03T04:34:11.690Z,101487.00
2022-12-03T04:36:38.555Z,101483.00
2022-12-03T04:39:05.350Z,101492.00
2022-12-03T04:41:31.841Z,101492.00
2022-12-03T04:44:24.639Z,101489.00
2022-12-03T04:46:51.181Z,101490.00
2022-12-03T04:49:17.703Z,101487.00
2022-12-03T04:51:44.291Z,101492.00
2022-12-03T04:54:10.792Z,101494.00
2022-12-03T04:56:37.301Z,101489.00
2022-12-03T04:59:04.001Z,101479.00
2022-12-03T05:01:30.626Z,101482.00
2022-12-03T05:03:57.194Z,101476.00
2022-12-03T05:06:23.706Z,101475.00
2022-12-03T05:08:50.348Z,101486.00
2022-12-03T05:11:17.737Z,101478.00
2022-12-03T05:13:44.256Z,101475.00
2022-12-03T05:16:10.932Z,101477.00
2022-12-03T05:18:37.596Z,101467.00
2022-12-03T05:21:04.335Z,101461.00
2022-12-03T05:23:31.926Z,101463.00
2022-12-03T05:25:58.442Z,101475.00
2022-12-03T05:28:25.073Z,101467.00
2022-12-03T05:30:52.074Z,101459.00
2022-12-03T05:33:18.705Z,101466.00
2022-12-03T05:35:45.190Z,101468.00
2022-12-03T05:38:11.718Z,101468.00
2022-12-03T05:40:38.331Z,101473.00
2022-12-03T05:43:04.966Z,101463.00
2022-12-03T05:45:35.074Z,101463.00
2022-12-03T05:48:01.925Z,101462.00
2022-12-03T05:50:30.536Z,101466.00
2022-12-03T05:52:57.607Z,101463.00
2022-12-03T05:55:24.870Z,101453.00
2022-12-03T05:57:51.468Z,101458.00
2022-12-03T06:00:26.335Z,101451.00
2022-12-03T06:02:53.443Z,101461.00
2022-12-03T06:05:20.715Z,101456.00
2022-12-03T06:07:48.325Z,101458.00
2022-12-03T06:10:19.339Z,101464.00
2022-12-03T06:12:46.013Z,101460.00
2022-12-03T06:15:14.017Z,101460.00
2022-12-03T06:17:41.201Z,101460.00
2022-12-03T06:20:09.034Z,101467.00
2022-12-03T06:22:35.555Z,101463.00
2022-12-03T06:25:06.360Z,101473.00
2022-12-03T06:27:33.401Z,101464.00
2022-12-03T06:29:59.872Z,101461.00
2022-12-03T06:32:26.406Z,101463.00
2022-12-03T06:34:53.365Z,101461.00
2022-12-03T06:37:19.966Z,101466.00
2022-12-03T06:39:46.470Z,101462.00
2022-12-03T06:42:13.022Z,101459.00
2022-12-03T06:44:39.502Z,101463.00
2022-12-03T06:47:06.151Z,101452.00
2022-12-03T06:49:32.919Z,101458.00
2022-12-03T06:51:59.492Z,101460.00
2022-12-03T06:54:29.929Z,101466.00
2022-12-03T06:57:17.377Z,101457.00
2022-12-03T06:59:44.969Z,101463.00
2022-12-03T07:02:12.674Z,101462.00
2022-12-03T07:04:44.847Z,101459.00
2022-12-03T07:07:12.924Z,101460.00
2022-12-03T07:09:39.658Z,101459.00
2022-12-03T07:12:08.758Z,101459.00
2022-12-03T07:14:35.303Z,101458.00
2022-12-03T07:17:01.821Z,101463.00
2022-12-03T07:19:32.478Z,101462.00
2022-12-03T07:22:00.114Z,101455.00
2022-12-03T07:24:26.843Z,101457.00
2022-12-03T07:26:53.458Z,101462.00
2022-12-03T07:29:20.018Z,101461.00
2022-12-03T07:31:46.565Z,101463.00
2022-12-03T07:34:13.210Z,101451.00
2022-12-03T07:36:39.724Z,101469.00
2022-12-03T07:39:06.301Z,101458.00
2022-12-03T07:41:33.006Z,101461.00
2022-12-03T07:43:59.554Z,101459.00
2022-12-03T07:46:26.159Z,101461.00
2022-12-03T07:48:52.754Z,101453.00
2022-12-03T07:51:19.414Z,101456.00
2022-12-03T07:53:45.966Z,101449.00
2022-12-03T07:56:12.575Z,101447.00
2022-12-03T07:58:39.121Z,101461.00
2022-12-03T08:01:05.910Z,101445.00
2022-12-03T08:03:32.462Z,101445.00
2022-12-03T08:05:59.020Z,101447.00
2022-12-03T08:08:25.846Z,101445.00
2022-12-03T08:10:52.556Z,101442.00
2022-12-03T08:13:19.575Z,101446.00
2022-12-03T08:15:46.627Z,101448.00
2022-12-03T08:18:21.095Z,101444.00
2022-12-03T08:20:49.638Z,101444.00
2022-12-03T08:23:18.534Z,101434.00
2022-12-03T08:25:45.885Z,101438.00
2022-12-03T08:28:21.751Z,101436.00
2022-12-03T08:31:32.232Z,101433.00
2022-12-03T08:34:13.911Z,101428.00
2022-12-03T08:36:40.389Z,101433.00
2022-12-03T08:39:33.751Z,101440.00
2022-12-03T08:42:31.231Z,101442.00
2022-12-03T08:45:20.193Z,101434.00
2022-12-03T08:47:46.647Z,101428.00
2022-12-03T08:50:34.176Z,101429.00
2022-12-03T08:53:25.974Z,101432.00
2022-12-03T08:55:54.582Z,101430.00
2022-12-03T08:58:33.147Z,101423.00
2022-12-03T09:01:12.075Z,101432.00
2022-12-03T09:03:41.882Z,101425.00
2022-12-03T09:06:08.415Z,101431.00
2022-12-03T09:08:34.900Z,101434.00
2022-12-03T09:11:01.432Z,101424.00
2022-12-03T09:13:28.051Z,101430.00
2022-12-03T09:15:54.518Z,101430.00
2022-12-03T09:18:21.013Z,101427.00
2022-12-03T09:20:47.583Z,101424.00
2022-12-03T09:23:14.055Z,101427.00
2022-12-03T09:25:40.648Z,101431.00
2022-12-03T09:28:07.202Z,101427.00
2022-12-03T09:30:33.841Z,101412.00
2022-12-03T09:33:00.335Z,101411.00
2022-12-03T09:35:28.015Z,101420.00
2022-12-03T09:37:54.692Z,101411.00
2022-12-03T09:40:21.522Z,101416.00
2022-12-03T09:42:48.325Z,101406.00
2022-12-03T09:45:15.540Z,101404.00
2022-12-03T09:47:46.574Z,101409.00
2022-12-03T09:50:15.953Z,101406.00
2022-12-03T09:52:42.488Z,101402.00
2022-12-03T09:55:17.034Z,101414.00
2022-12-03T09:57:43.575Z,101406.00
2022-12-03T10:00:19.178Z,101392.00
2022-12-03T10:02:47.220Z,101398.00
2022-12-03T10:05:14.261Z,101390.00
2022-12-03T10:07:41.291Z,101391.00
2022-12-03T10:10:16.275Z,101391.00
2022-12-03T10:12:43.934Z,101382.00
2022-12-03T10:15:16.165Z,101375.00
2022-12-03T10:17:44.038Z,101380.00
2022-12-03T10:20:16.185Z,101385.00
2022-12-03T10:22:43.369Z,101379.00
2022-12-03T10:25:12.800Z,101367.00
2022-12-03T10:27:40.325Z,101378.00
2022-12-03T10:30:19.729Z,101375.00
2022-12-03T10:32:51.036Z,101372.00
2022-12-03T10:35:24.157Z,101371.00
2022-12-03T10:38:06.688Z,101372.00
2022-12-03T10:40:36.022Z,101350.00
2022-12-03T10:43:17.886Z,101361.00
2022-12-03T10:45:48.570Z,101362.00
2022-12-03T10:48:25.534Z,101367.00
2022-12-03T10:51:02.708Z,101366.00
2022-12-03T10:53:34.647Z,101359.00
2022-12-03T10:56:04.059Z,101361.00
2022-12-03T10:58:34.746Z,101358.00
2022-12-03T11:01:03.423Z,101351.00
2022-12-03T11:03:34.519Z,101361.00
2022-12-03T11:06:03.082Z,101369.00
2022-12-03T11:08:36.304Z,101347.00
2022-12-03T11:11:07.671Z,101355.00
2022-12-03T11:13:37.821Z,101346.00
2022-12-03T11:16:06.046Z,101349.00
2022-12-03T11:18:39.052Z,101349.00
2022-12-03T11:21:14.009Z,101352.00
2022-12-03T11:23:47.198Z,101341.00
2022-12-03T11:26:36.714Z,101331.00
2022-12-03T11:29:03.323Z,101324.00
2022-12-03T11:31:43.633Z,101313.00
2022-12-03T11:34:22.409Z,101323.00
2022-12-03T11:37:12.201Z,101320.00
2022-12-03T11:40:05.923Z,101321.00
2022-12-03T11:42:47.283Z,101316.00
2022-12-03T11:45:38.302Z,101317.00
2022-12-03T11:48:22.311Z,101303.00
2022-12-03T11:51:08.608Z,101322.00
2022-12-03T11:53:43.698Z,101306.00
2022-12-03T11:56:18.632Z,101306.00
2022-12-03T11:58:48.722Z,101309.00
2022-12-03T12:01:39.473Z,101306.00
2022-12-03T12:04:32.540Z,101312.00
2022-12-03T12:07:00.319Z,101312.00
2022-12-03T12:09:52.123Z,101316.00
2022-12-03T12:12:39.339Z,101325.00
2022-12-03T12:15:32.966Z,101317.00
2022-12-03T12:18:37.219Z,101317.00
2022-12-03T12:21:42.136Z,101307.00
2022-12-03T12:24:35.824Z,101313.00
2022-12-03T12:27:08.103Z,101315.00
2022-12-03T12:29:36.641Z,101303.00
2022-12-03T12:32:30.254Z,101302.00
2022-12-03T12:35:27.016Z,101297.00
2022-12-03T12:38:02.687Z,101306.00
2022-12-03T12:40:31.911Z,101299.00
2022-12-03T12:43:05.321Z,101302.00
2022-12-03T12:45:36.136Z,101297.00
2022-12-03T12:48:03.283Z,101286.00
2022-12-03T12:50:30.923Z,101296.00
2022-12-03T12:53:21.344Z,101290.00
2022-12-03T12:55:48.735Z,101292.00
2022-12-03T12:58:18.506Z,101283.00
2022-12-03T13:00:50.743Z,101283.00
2022-12-03T13:03:20.012Z,101274.00
2022-12-03T13:05:48.599Z,101277.00
2022-12-03T13:08:27.647Z,101254.00
2022-12-03T13:10:56.153Z,101273.00
2022-12-03T13:13:28.770Z,101265.00
2022-12-03T13:16:02.630Z,101270.00
2022-12-03T13:18:48.691Z,101267.00
2022-12-03T13:21:34.027Z,101271.00
2022-12-03T13:24:00.836Z,101255.00
2022-12-03T13:26:39.698Z,101254.00
2022-12-03T13:29:16.743Z,101255.00
2022-12-03T13:31:55.633Z,101254.00
2022-12-03T13:34:25.368Z,101256.00
2022-12-03T13:36:57.577Z,101255.00
2022-12-03T13:39:32.033Z,101255.00
2022-12-03T13:42:42.291Z,101247.00
2022-12-03T13:45:14.986Z,101256.00
2022-12-03T13:47:45.864Z,101251.00
2022-12-03T13:50:34.255Z,101245.00
2022-12-03T13:53:02.652Z,101248.00
2022-12-03T13:55:32.352Z,101245.00
2022-12-03T13:57:59.076Z,101244.00
2022-12-03T14:00:25.671Z,101243.00
2022-12-03T14:02:52.390Z,101256.00
2022-12-03T14:05:21.148Z,101254.00
2022-12-03T14:07:47.815Z,101256.00
2022-12-03T14:10:14.628Z,101240.00
2022-12-03T14:12:41.191Z,101244.00
2022-12-03T14:15:10.391Z,101248.00
2022-12-03T14:17:37.106Z,101247.00
2022-12-03T14:20:04.080Z,101250.00
2022-12-03T14:22:30.808Z,101249.00
2022-12-03T14:24:57.870Z,101249.00
2022-12-03T14:27:24.838Z,101254.00
2022-12-03T14:29:52.236Z,101256.00
2022-12-03T14:32:19.173Z,101256.00
2022-12-03T14:34:45.707Z,101252.00
2022-12-03T14:37:12.677Z,101243.00
2022-12-03T14:39:39.528Z,101246.00
2022-12-03T14:42:15.238Z,101253.00
2022-12-03T14:44:47.104Z,101249.00
2022-12-03T14:47:15.193Z,101250.00
2022-12-03T14:49:41.796Z,101240.00
2022-12-03T14:52:12.259Z,101247.00
2022-12-03T14:54:39.697Z,101249.00
2022-12-03T14:57:06.191Z,101254.00
2022-12-03T14:59:32.805Z,101253.00
2022-12-03T15:01:59.511Z,101252.00
2022-12-03T15:04:26.129Z,101251.00
2022-12-03T15:06:52.646Z,101249.00
2022-12-03T15:09:19.271Z,101246.00
2022-12-03T15:11:46.666Z,101236.00
2022-12-03T15:14:13.666Z,101252.00
2022-12-03T15:16:40.387Z,101239.00
2022-12-03T15:19:07.057Z,101262.00
2022-12-03T15:21:34.844Z,101259.00
2022-12-03T15:24:02.447Z,101254.00
2022-12-03T15:26:29.324Z,101253.00
2022-12-03T15:28:55.884Z,101274.00
2022-12-03T15:31:22.434Z,101262.00
2022-12-03T15:33:48.975Z,101260.00
2022-12-03T15:36:15.499Z,101259.00
2022-12-03T15:38:42.217Z,101254.00
2022-12-03T15:41:41.085Z,101253.00
2022-12-03T15:44:07.595Z,101254.00
2022-12-03T15:46:34.135Z,101260.00
2022-12-03T15:49:00.699Z,101258.00
2022-12-03T15:51:27.555Z,101248.00
2022-12-03T15:53:54.568Z,101257.00
2022-12-03T15:56:21.450Z,101251.00
2022-12-03T15:58:48.243Z,101262.00
2022-12-03T16:01:15.046Z,101249.00
2022-12-03T16:03:41.687Z,101250.00
2022-12-03T16:06:08.343Z,101237.00
2022-12-03T16:08:34.944Z,101244.00
2022-12-03T16:11:01.513Z,101249.00
2022-12-03T16:13:28.005Z,101248.00
2022-12-03T16:15:54.618Z,101244.00
2022-12-03T16:18:21.264Z,101236.00
2022-12-03T16:20:47.838Z,101244.00
2022-12-03T16:23:14.407Z,101246.00
2022-12-03T16:25:40.939Z,101250.00
2022-12-03T16:28:07.460Z,101247.00
2022-12-03T16:30:34.267Z,101241.00
2022-12-03T16:33:00.864Z,101244.00
2022-12-03T16:35:27.466Z,101228.00
2022-12-03T16:37:53.949Z,101244.00
2022-12-03T16:40:20.465Z,101240.00
2022-12-03T16:42:46.992Z,101238.00
2022-12-03T16:45:33.320Z,101239.00
2022-12-03T16:48:01.494Z,101239.00
2022-12-03T16:50:30.228Z,101242.00
2022-12-03T16:52:57.783Z,101246.00
2022-12-03T16:55:24.415Z,101240.00
2022-12-03T16:57:51.056Z,101236.00
2022-12-03T17:00:17.875Z,101247.00
2022-12-03T17:02:44.504Z,101233.00
2022-12-03T17:05:11.130Z,101242.00
2022-12-03T17:07:37.794Z,101237.00
2022-12-03T17:10:04.952Z,101241.00
2022-12-03T17:12:54.085Z,101246.00
2022-12-03T17:15:18.985Z,101238.00
2022-12-03T17:17:45.463Z,101227.00
2022-12-03T17:20:13.250Z,101240.00
2022-12-03T17:22:39.940Z,101242.00
2022-12-03T17:25:07.118Z,101238.00
2022-12-03T17:27:33.655Z,101233.00
2022-12-03T17:30:00.293Z,101227.00
2022-12-03T17:32:27.225Z,101219.00
2022-12-03T17:34:53.723Z,101234.00
2022-12-03T17:37:20.261Z,101227.00
2022-12-03T17:39:46.741Z,101227.00
2022-12-03T17:42:13.432Z,101225.00
2022-12-03T17:44:39.964Z,101225.00
2022-12-03T17:47:06.483Z,101235.00
2022-12-03T17:49:33.019Z,101222.00
2022-12-03T17:52:03.263Z,101223.00
2022-12-03T17:54:55.233Z,101213.00
2022-12-03T17:57:17.183Z,101234.00
2022-12-03T17:59:43.664Z,101224.00
2022-12-03T18:02:10.270Z,101221.00
2022-12-03T18:04:36.839Z,101216.00
2022-12-03T18:07:03.532Z,101228.00
2022-12-03T18:09:30.132Z,101217.00
2022-12-03T18:11:56.665Z,101221.00
2022-12-03T18:14:24.162Z,101214.00
2022-12-03T18:16:50.763Z,101222.00
2022-12-03T18:19:18.070Z,101225.00
2022-12-03T18:21:44.604Z,101227.00
2022-12-03T18:24:11.328Z,101238.00
2022-12-03T18:26:38.135Z,101231.00
2022-12-03T18:29:04.682Z,101232.00
2022-12-03T18:31:31.255Z,101228.00
2022-12-03T18:33:57.908Z,101223.00
2022-12-03T18:36:31.396Z,101229.00
2022-12-03T18:38:59.164Z,101219.00
2022-12-03T18:41:25.729Z,101225.00
2022-12-03T18:43:52.309Z,101230.00
2022-12-03T18:46:45.043Z,101231.00
2022-12-03T18:49:12.553Z,101222.00
2022-12-03T18:51:39.653Z,101212.00
2022-12-03T18:54:12.282Z,101210.00
2022-12-03T18:56:40.801Z,101227.00
2022-12-03T18:59:08.080Z,101219.00
2022-12-03T19:01:34.908Z,101215.00
2022-12-03T19:04:01.500Z,101220.00
2022-12-03T19:06:29.236Z,101220.00
2022-12-03T19:08:56.484Z,101228.00
2022-12-03T19:11:23.218Z,101218.00
2022-12-03T19:13:49.953Z,101214.00
2022-12-03T19:16:17.259Z,101225.00
2022-12-03T19:18:44.338Z,101227.00
2022-12-03T19:21:13.459Z,101210.00
2022-12-03T19:23:40.380Z,101222.00
2022-12-03T19:26:09.347Z,101221.00
2022-12-03T19:28:36.225Z,101224.00
2022-12-03T19:31:15.489Z,101230.00
2022-12-03T19:33:57.792Z,101229.00
2022-12-03T19:36:31.808Z,101234.00
2022-12-03T19:39:09.034Z,101234.00
2022-12-03T19:41:35.913Z,101231.00
2022-12-03T19:44:07.737Z,101225.00
2022-12-03T19:46:40.830Z,101228.00
2022-12-03T19:49:20.883Z,101215.00
2022-12-03T19:51:48.081Z,101233.00
2022-12-03T19:54:18.496Z,101238.00
2022-12-03T19:56:46.609Z,101238.00
2022-12-03T19:59:13.963Z,101229.00
2022-12-03T20:01:43.163Z,101225.00
2022-12-03T20:04:11.615Z,101232.00
2022-12-03T20:06:57.311Z,101229.00
2022-12-03T20:09:26.502Z,101218.00
2022-12-03T20:12:00.775Z,101227.00
2022-12-03T20:14:27.443Z,101226.00
2022-12-03T20:16:57.781Z,101210.00
2022-12-03T20:19:28.247Z,101213.00
2022-12-03T20:22:25.790Z,101218.00
2022-12-03T20:24:55.717Z,101223.00
2022-12-03T20:27:28.158Z,101216.00
2022-12-03T20:29:55.759Z,101204.00
2022-12-03T20:32:22.463Z,101227.00
2022-12-03T20:34:50.070Z,101219.00
2022-12-03T20:37:17.139Z,101219.00
2022-12-03T20:39:43.887Z,101233.00
2022-12-03T20:42:10.639Z,101228.00
2022-12-03T20:44:40.681Z,101230.00
2022-12-03T20:47:17.403Z,101231.00
2022-12-03T20:49:43.993Z,101229.00
2022-12-03T20:52:10.626Z,101224.00
2022-12-03T20:54:37.269Z,101233.00
2022-12-03T20:57:04.996Z,101221.00
2022-12-03T20:59:32.745Z,101228.00
2022-12-03T21:01:59.470Z,101235.00
2022-12-03T21:04:26.089Z,101229.00
2022-12-03T21:06:52.615Z,101231.00
2022-12-03T21:09:19.189Z,101223.00
2022-12-03T21:11:45.701Z,101231.00
2022-12-03T21:14:12.401Z,101228.00
2022-12-03T21:19:29.698Z,101220.00
2022-12-03T21:22:13.258Z,101227.00
2022-12-03T21:24:42.631Z,101217.00
2022-12-03T21:27:09.225Z,101219.00
2022-12-03T21:29:36.447Z,101227.00
2022-12-03T21:35:04.322Z,101214.00
2022-12-03T21:37:43.005Z,101212.00
2022-12-03T21:40:20.778Z,101216.00
2022-12-03T21:42:51.199Z,101197.00
2022-12-03T21:45:18.353Z,101202.00
2022-12-03T21:47:48.539Z,101201.00
2022-12-03T21:50:15.542Z,101206.00
2022-12-03T21:53:05.341Z,101202.00
2022-12-03T21:55:39.158Z,101210.00
2022-12-03T21:58:06.136Z,101202.00
2022-12-03T22:00:32.782Z,101203.00
2022-12-03T22:03:04.786Z,101185.00
2022-12-03T22:05:31.425Z,101210.00
2022-12-03T22:08:04.926Z,101204.00
2022-12-03T22:10:31.801Z,101196.00
2022-12-03T22:12:58.516Z,101189.00
2022-12-03T22:15:25.223Z,101201.00
2022-12-03T22:17:51.940Z,101202.00
2022-12-03T22:20:18.896Z,101201.00
2022-12-03T22:22:45.578Z,101208.00
2022-12-03T22:25:12.344Z,101208.00
2022-12-03T22:27:42.011Z,101212.00
2022-12-03T22:30:09.244Z,101192.00
2022-12-03T22:32:35.982Z,101201.00
2022-12-03T22:35:02.479Z,101193.00
2022-12-03T22:37:29.142Z,101189.00
2022-12-03T22:39:55.969Z,101194.00
2022-12-03T22:42:22.808Z,101191.00
2022-12-03T22:44:49.397Z,101181.00
2022-12-03T22:47:22.123Z,101180.00
2022-12-03T22:49:48.727Z,101188.00
2022-12-03T22:52:15.360Z,101183.00
2022-12-03T22:54:45.356Z,101176.00
2022-12-03T22:57:12.208Z,101187.00
2022-12-03T22:59:39.066Z,101179.00
2022-12-03T23:02:05.609Z,101181.00
2022-12-03T23:04:32.215Z,101173.00
2022-12-03T23:06:58.840Z,101178.00
2022-12-03T23:09:25.603Z,101184.00
2022-12-03T23:11:52.211Z,101165.00
2022-12-03T23:14:18.815Z,101166.00
2022-12-03T23:16:45.808Z,101171.00
2022-12-03T23:19:12.548Z,101160.00
2022-12-03T23:21:39.015Z,101167.00
2022-12-03T23:24:06.409Z,101164.00
2022-12-03T23:26:38.106Z,101161.00
2022-12-03T23:29:05.973Z,101157.00
2022-12-03T23:31:33.333Z,101164.00
2022-12-03T23:34:00.673Z,101158.00
2022-12-03T23:36:29.989Z,101152.00
2022-12-03T23:38:56.655Z,101147.00
2022-12-03T23:41:23.762Z,101148.00
2022-12-03T23:43:51.008Z,101154.00
2022-12-03T23:46:20.502Z,101164.00
2022-12-03T23:48:47.334Z,101162.00
2022-12-03T23:51:23.329Z,101161.00
2022-12-03T23:53:50.309Z,101154.00
2022-12-03T23:56:20.138Z,101145.00
2022-12-03T23:58:47.344Z,101146.00
